M I D A S
Marine Information and Data Acquisition System
Tripno 2141 of the Zeeleeuw from 2011-07-08 05:02:26 to 2011-07-08 15:22:40
Back to CruiseResearch ActivitiesStationsMapUnderway DataData graphs

EquipmentUnitsComment
TimeDGPSUTC
LatitudeDGPSDM.mWGS84
LongitudeDGPSDM.mWGS84
HeadingGyrodeg 
SOGDGPSknotsSpeed over ground
COGDGPSdegCourse over ground
DepthEcho soundermeters200 kHz
Missing or incorrect values are displayed as -999
Navigation data collected by the RV Zeeleeuw from 2011-07-08 05:06:23 to 2011-07-08 15:38:19
                                                                                    Next 1000 lines
Time Latitude Longitude Heading SOG COG Depth
2011-07-08 05:06:33 51°13.637 2°56.012 109.1 1.9 292 10.2
2011-07-08 05:06:38 51°13.638 2°56.007 108.8 2.3 292 10.4
2011-07-08 05:06:43 51°13.64 2°56.001 109 2.8 292 10.9
2011-07-08 05:06:48 51°13.642 2°55.994 109.6 3.3 294 -999
2011-07-08 05:06:54 51°13.644 2°55.985 110 3.7 294 -999
2011-07-08 05:06:58 51°13.646 2°55.978 110 4.1 292 -999
2011-07-08 05:07:03 51°13.648 2°55.969 110 4.4 293 -999
2011-07-08 05:07:08 51°13.651 2°55.96 109.8 4.6 291 -999
2011-07-08 05:07:13 51°13.653 2°55.95 109.7 4.7 292 -999
2011-07-08 05:07:18 51°13.656 2°55.941 109.4 4.7 292 -999
2011-07-08 05:07:23 51°13.658 2°55.931 109.3 4.7 291 -999
2011-07-08 05:07:28 51°13.661 2°55.921 109.1 4.8 291 -999
2011-07-08 05:07:33 51°13.663 2°55.911 109.1 4.8 290 -999
2011-07-08 05:07:39 51°13.666 2°55.899 108.8 4.9 291 -999
2011-07-08 05:07:43 51°13.668 2°55.891 108.7 4.9 290 -999
2011-07-08 05:07:49 51°13.671 2°55.878 108.6 4.9 291 -999
2011-07-08 05:07:54 51°13.673 2°55.868 108.5 4.9 290 -999
2011-07-08 05:07:59 51°13.676 2°55.858 108.5 4.8 291 -999
2011-07-08 05:08:03 51°13.677 2°55.85 108.5 4.7 290 -999
2011-07-08 05:08:09 51°13.68 2°55.839 108.1 4.7 291 -999
2011-07-08 05:08:14 51°13.682 2°55.83 107.4 4.5 289 -999
2011-07-08 05:08:19 51°13.684 2°55.821 106.5 4.4 290 -999
2011-07-08 05:08:23 51°13.686 2°55.813 105.3 4.4 289 -999
2011-07-08 05:08:29 51°13.688 2°55.803 103.9 4.3 288 -999
2011-07-08 05:08:34 51°13.689 2°55.794 102.3 4.1 286 -999
2011-07-08 05:08:39 51°13.691 2°55.785 100.3 4 285 -999
2011-07-08 05:08:43 51°13.692 2°55.779 98.2 3.9 283 -999
2011-07-08 05:08:48 51°13.693 2°55.77 95.9 3.8 282 -999
2011-07-08 05:08:54 51°13.694 2°55.761 93.6 3.6 280 -999
2011-07-08 05:08:58 51°13.694 2°55.755 91.2 3.3 278 -999
2011-07-08 05:09:03 51°13.695 2°55.749 88.9 3 278 -999
2011-07-08 05:09:08 51°13.695 2°55.743 86.8 2.4 277 -999
2011-07-08 05:09:13 51°13.695 2°55.74 84.8 1.6 273 -999
2011-07-08 05:09:19 51°13.695 2°55.737 80.3 1.1 286 14.7
2011-07-08 05:09:24 51°13.695 2°55.736 76.3 0.6 285 14.9
2011-07-08 05:09:28 51°13.696 2°55.735 71.9 0.6 314 14.9
2011-07-08 05:09:33 51°13.696 2°55.735 67.1 0.3 329 15
2011-07-08 05:09:38 51°13.697 2°55.735 61.2 0.6 359 15.2
2011-07-08 05:09:43 51°13.698 2°55.735 57.4 0.7 16 15.2
2011-07-08 05:09:48 51°13.699 2°55.737 51.7 1.2 29 15.1
2011-07-08 05:09:52 51°13.701 2°55.738 47.3 1.7 28 15.5
2011-07-08 05:09:57 51°13.704 2°55.74 39.8 1.9 22 15.2
2011-07-08 05:10:02 51°13.706 2°55.741 32 2 18 14.8
2011-07-08 05:10:07 51°13.709 2°55.742 25.5 2 16 14.9
2011-07-08 05:10:12 51°13.712 2°55.743 20.3 2.1 12 15
2011-07-08 05:10:16 51°13.714 2°55.744 15.3 2.1 9 14.9
2011-07-08 05:10:21 51°13.718 2°55.744 10.7 2.7 2 14.7
2011-07-08 05:10:26 51°13.722 2°55.744 6.5 3.2 357 14.7
2011-07-08 05:10:31 51°13.727 2°55.742 -999 3.6 350 14.6
2011-07-08 05:10:36 51°13.731 2°55.74 352 3.4 345 14.4
2011-07-08 05:10:40 51°13.734 2°55.737 343.5 3.2 338 13.7
2011-07-08 05:10:46 51°13.74 2°55.734 337 3.3 338 13.7
2011-07-08 05:10:51 51°13.744 2°55.73 334.6 3.6 333 13.3
2011-07-08 05:10:56 51°13.749 2°55.727 332.9 4 335 13
2011-07-08 05:11:00 51°13.753 2°55.723 332.2 4.3 332 12.8
2011-07-08 05:11:05 51°13.759 2°55.718 331 4.7 331 12.8
2011-07-08 05:11:10 51°13.765 2°55.711 329.5 5.2 329 12.9
2011-07-08 05:11:15 51°13.772 2°55.705 328.5 5.7 329 12.6
2011-07-08 05:11:20 51°13.779 2°55.698 328.3 6 328 12.6
2011-07-08 05:11:24 51°13.785 2°55.692 327.5 6.3 327 12.3
2011-07-08 05:11:29 51°13.793 2°55.685 327 6.7 327 12.7
2011-07-08 05:11:34 51°13.801 2°55.676 327 6.9 328 12.6
2011-07-08 05:11:40 51°13.811 2°55.666 327 7.2 327 12.8
2011-07-08 05:11:45 51°13.82 2°55.657 327 7.5 328 13.5
2011-07-08 05:11:49 51°13.828 2°55.65 328.5 7.8 330 13.5
2011-07-08 05:11:55 51°13.839 2°55.64 330.7 7.9 332 13.6
2011-07-08 05:12:00 51°13.849 2°55.632 331.5 8.2 332 13.7
2011-07-08 05:12:05 51°13.86 2°55.623 331.8 8.5 333 13.7
2011-07-08 05:12:09 51°13.869 2°55.616 333 8.7 334 13.7
2011-07-08 05:12:14 51°13.88 2°55.608 334.4 8.9 336 14
2011-07-08 05:12:19 51°13.892 2°55.599 334.6 9.1 334 14
2011-07-08 05:12:26 51°13.908 2°55.587 334.4 9.4 335 14.1
2011-07-08 05:12:29 51°13.915 2°55.582 334.9 9.5 336 14.1
2011-07-08 05:12:35 51°13.93 2°55.571 334.9 9.6 334 14
2011-07-08 05:12:40 51°13.942 2°55.562 335.2 9.7 336 14
2011-07-08 05:12:45 51°13.954 2°55.553 335.3 9.8 335 13.9
2011-07-08 05:12:50 51°13.966 2°55.543 334.8 9.8 335 14.2
2011-07-08 05:12:54 51°13.976 2°55.536 335.4 9.8 336 13.9
2011-07-08 05:13:00 51°13.991 2°55.526 335.7 9.9 335 13.9
2011-07-08 05:13:05 51°14.004 2°55.517 335.6 9.9 337 13.8
2011-07-08 05:13:10 51°14.017 2°55.508 335.7 9.9 335 -999
2011-07-08 05:13:14 51°14.027 2°55.501 335.8 10 336 13.8
2011-07-08 05:13:20 51°14.043 2°55.49 335.9 10 335 13.7
2011-07-08 05:13:25 51°14.055 2°55.481 335.5 10.1 335 13.7
2011-07-08 05:13:30 51°14.068 2°55.472 335.4 10 336 13.7
2011-07-08 05:13:34 51°14.078 2°55.464 335.8 10 336 13.7
2011-07-08 05:13:40 51°14.093 2°55.453 335.5 10.1 335 13.7
2011-07-08 05:13:45 51°14.106 2°55.443 335.2 10.2 335 13.7
2011-07-08 05:13:50 51°14.119 2°55.434 335.2 10.3 335 13.6
2011-07-08 05:13:55 51°14.132 2°55.423 334.7 10.3 333 13.6
2011-07-08 05:14:00 51°14.145 2°55.414 334.7 10.3 335 13.6
2011-07-08 05:14:05 51°14.157 2°55.403 334.7 10.4 333 13.5
2011-07-08 05:14:10 51°14.17 2°55.392 333.6 10.5 333 13.6
2011-07-08 05:14:15 51°14.183 2°55.382 333.2 10.6 333 13.6
2011-07-08 05:14:19 51°14.194 2°55.373 332.4 10.6 331 13.6
2011-07-08 05:14:25 51°14.209 2°55.359 331.7 10.7 331 13.6
2011-07-08 05:14:30 51°14.222 2°55.348 331.4 10.7 331 13.6
2011-07-08 05:14:35 51°14.235 2°55.336 330.8 10.7 330 13.6
2011-07-08 05:14:39 51°14.246 2°55.326 329.8 10.8 329 13.6
2011-07-08 05:14:45 51°14.261 2°55.311 329.6 10.8 330 13.4
2011-07-08 05:14:49 51°14.272 2°55.301 329.6 10.9 328 13.6
2011-07-08 05:14:55 51°14.287 2°55.285 328.2 11 327 13.5
2011-07-08 05:14:59 51°14.297 2°55.274 326.7 11.1 326 13.6
2011-07-08 05:15:05 51°14.313 2°55.258 326.7 11.2 328 13.6
2011-07-08 05:15:10 51°14.325 2°55.244 326.5 11.3 325 13.4
2011-07-08 05:15:15 51°14.339 2°55.23 326 11.4 326 13.5
2011-07-08 05:15:19 51°14.349 2°55.218 325.8 11.5 325 13.4
2011-07-08 05:15:25 51°14.366 2°55.201 325.5 11.6 327 13.4
2011-07-08 05:15:30 51°14.379 2°55.187 325.9 11.6 326 13.1
2011-07-08 05:15:35 51°14.392 2°55.173 325.5 11.7 326 13
2011-07-08 05:15:39 51°14.403 2°55.161 326.2 11.7 328 13.4
2011-07-08 05:15:44 51°14.417 2°55.147 326.9 11.9 326 13.4
2011-07-08 05:15:50 51°14.434 2°55.13 326.9 11.9 326 13.3
2011-07-08 05:15:55 51°14.448 2°55.115 327.3 12 327 13.4
2011-07-08 05:15:59 51°14.459 2°55.103 327 12.1 326 13.2
2011-07-08 05:16:05 51°14.476 2°55.086 327.3 12.2 327 13.7
2011-07-08 05:16:10 51°14.49 2°55.071 328.1 12.3 327 13.7
2011-07-08 05:16:15 51°14.504 2°55.055 327 12.5 325 13.8
2011-07-08 05:16:19 51°14.516 2°55.041 324.6 12.6 324 13.9
2011-07-08 05:16:25 51°14.533 2°55.024 325.2 12.7 329 14.3
2011-07-08 05:16:30 51°14.549 2°55.009 326.5 12.8 329 14.7
2011-07-08 05:16:35 51°14.565 2°54.997 327.8 12.9 334 14.7
2011-07-08 05:16:39 51°14.578 2°54.987 328.6 13 334 14.8
2011-07-08 05:16:45 51°14.598 2°54.973 328.8 13 335 14.4
2011-07-08 05:16:49 51°14.611 2°54.963 328.6 13.1 336 14.4
2011-07-08 05:16:55 51°14.631 2°54.949 328.4 13.1 335 14.4
2011-07-08 05:16:59 51°14.643 2°54.938 327 13 333 14.4
2011-07-08 05:17:05 51°14.663 2°54.922 325.6 13.1 333 14.4
2011-07-08 05:17:10 51°14.679 2°54.909 325.2 13 332 14.1
2011-07-08 05:17:15 51°14.694 2°54.895 324.6 12.9 332 14.2
2011-07-08 05:17:19 51°14.707 2°54.884 323 12.9 329 14.2
2011-07-08 05:17:25 51°14.724 2°54.865 320.3 12.8 326 14.2
2011-07-08 05:17:30 51°14.739 2°54.849 319.1 12.8 327 14
2011-07-08 05:17:35 51°14.754 2°54.835 319.6 12.8 329 13.9
2011-07-08 05:17:39 51°14.767 2°54.823 320.6 12.8 328 13.8
2011-07-08 05:17:44 51°14.782 2°54.809 320.7 12.9 329 13.7
2011-07-08 05:17:49 51°14.798 2°54.794 320.9 12.9 329 13.3
2011-07-08 05:17:55 51°14.816 2°54.776 320.3 12.8 328 13.4
2011-07-08 05:17:59 51°14.828 2°54.763 319.2 12.8 326 13.3
2011-07-08 05:18:05 51°14.845 2°54.744 317.5 12.8 325 13.2
2011-07-08 05:18:10 51°14.86 2°54.728 317.4 12.8 326 13.2
2011-07-08 05:18:15 51°14.875 2°54.713 318.2 12.8 327 13.4
2011-07-08 05:18:19 51°14.886 2°54.7 317.6 12.8 325 13.1
2011-07-08 05:18:25 51°14.904 2°54.681 317.8 12.8 327 13.3
2011-07-08 05:18:30 51°14.919 2°54.666 319.1 12.8 327 13.3
2011-07-08 05:18:35 51°14.934 2°54.65 319.8 12.8 328 13.2
2011-07-08 05:18:39 51°14.946 2°54.638 320.2 12.9 328 13.1
2011-07-08 05:18:45 51°14.964 2°54.62 320.5 12.9 327 12.9
2011-07-08 05:18:50 51°14.979 2°54.604 319.4 12.8 326 12.7
2011-07-08 05:18:55 51°14.994 2°54.588 318.8 12.9 327 12.6
2011-07-08 05:19:00 51°15.009 2°54.572 319.4 12.9 326 12.6
2011-07-08 05:19:05 51°15.023 2°54.556 318.7 12.8 325 12.6
2011-07-08 05:19:10 51°15.038 2°54.54 318 12.8 325 12.4
2011-07-08 05:19:15 51°15.052 2°54.523 317.2 12.8 323 12.3
2011-07-08 05:19:20 51°15.066 2°54.505 316.3 12.8 323 12.3
2011-07-08 05:19:25 51°15.08 2°54.488 316.2 12.8 323 12.1
2011-07-08 05:19:30 51°15.094 2°54.471 316.6 12.8 323 12.2
2011-07-08 05:19:35 51°15.109 2°54.455 317.5 12.9 325 12.3
2011-07-08 05:19:39 51°15.121 2°54.442 319 12.9 326 12.1
2011-07-08 05:19:45 51°15.139 2°54.423 320.6 12.9 327 12.2
2011-07-08 05:19:50 51°15.154 2°54.407 321.3 12.9 326 11.8
2011-07-08 05:19:55 51°15.169 2°54.392 321.6 13 328 12
2011-07-08 05:19:59 51°15.181 2°54.38 321.8 13 327 12.1
2011-07-08 05:20:04 51°15.196 2°54.365 321.8 13 328 12.1
2011-07-08 05:20:10 51°15.215 2°54.346 322.2 13 327 12.2
2011-07-08 05:20:15 51°15.23 2°54.33 322.1 13 327 12.3
2011-07-08 05:20:19 51°15.242 2°54.318 321.4 12.9 326 12.3
2011-07-08 05:20:24 51°15.256 2°54.302 320.6 12.9 326 12.3
2011-07-08 05:20:30 51°15.274 2°54.282 320.1 12.9 326 12.3
2011-07-08 05:20:35 51°15.289 2°54.266 319.2 12.9 325 12.3
2011-07-08 05:20:39 51°15.3 2°54.252 318 12.8 324 12.2
2011-07-08 05:20:45 51°15.317 2°54.232 317.6 12.8 324 12.4
2011-07-08 05:20:49 51°15.328 2°54.219 317.2 12.7 322 12.4
2011-07-08 05:20:55 51°15.345 2°54.198 316.4 12.8 323 12.4
2011-07-08 05:20:59 51°15.357 2°54.184 316.4 12.8 322 12.5
2011-07-08 05:21:05 51°15.373 2°54.164 316.1 12.8 322 12.6
2011-07-08 05:21:10 51°15.387 2°54.146 316.2 12.8 323 12.6
2011-07-08 05:21:15 51°15.402 2°54.129 316.4 12.8 323 12.7
2011-07-08 05:21:19 51°15.413 2°54.116 317.1 12.8 324 12.9
2011-07-08 05:21:25 51°15.431 2°54.096 318 12.9 325 12.8
2011-07-08 05:21:30 51°15.445 2°54.08 318.7 12.9 325 12.9
2011-07-08 05:21:35 51°15.46 2°54.063 319 12.9 325 13.2
2011-07-08 05:21:39 51°15.472 2°54.051 319.3 12.8 326 13.1
2011-07-08 05:21:45 51°15.489 2°54.031 319.5 12.8 325 13
2011-07-08 05:21:49 51°15.501 2°54.018 318.7 12.8 323 13.1
2011-07-08 05:21:55 51°15.517 2°53.997 317.2 12.8 322 13.1
2011-07-08 05:21:59 51°15.528 2°53.983 315.9 12.7 320 13.2
2011-07-08 05:22:05 51°15.544 2°53.961 314.4 12.7 320 13.2
2011-07-08 05:22:10 51°15.558 2°53.943 313.9 12.7 319 13.3
2011-07-08 05:22:15 51°15.571 2°53.924 313.3 12.7 319 13.3
2011-07-08 05:22:19 51°15.581 2°53.909 312.4 12.6 317 13.4
2011-07-08 05:22:25 51°15.597 2°53.886 311.5 12.6 317 13.5
2011-07-08 05:22:30 51°15.609 2°53.867 311.1 12.7 316 13.5
2011-07-08 05:22:35 51°15.622 2°53.847 310 12.6 316 13.7
2011-07-08 05:22:39 51°15.632 2°53.832 309.8 12.6 316 13.6
2011-07-08 05:22:45 51°15.647 2°53.808 309.9 12.6 315 13.7
2011-07-08 05:22:49 51°15.657 2°53.792 309.3 12.6 315 13.6
2011-07-08 05:22:55 51°15.672 2°53.769 309.4 12.7 316 13.8
2011-07-08 05:22:59 51°15.682 2°53.753 309.7 12.6 315 13.9
2011-07-08 05:23:05 51°15.697 2°53.73 309.3 12.7 317 13.9
2011-07-08 05:23:10 51°15.709 2°53.711 310.3 12.6 316 13.8
2011-07-08 05:23:15 51°15.722 2°53.692 310.2 12.6 317 13.9
2011-07-08 05:23:19 51°15.733 2°53.677 311.1 12.7 317 14
2011-07-08 05:23:25 51°15.748 2°53.654 311.2 12.7 319 13.9
2011-07-08 05:23:29 51°15.759 2°53.64 312.3 12.7 319 14
2011-07-08 05:23:35 51°15.775 2°53.618 312.9 12.7 320 14
2011-07-08 05:23:39 51°15.786 2°53.604 313.7 12.8 321 14.3
2011-07-08 05:23:45 51°15.803 2°53.582 313.6 12.7 321 14.1
2011-07-08 05:23:49 51°15.813 2°53.568 314 12.7 320 14.1
2011-07-08 05:23:55 51°15.83 2°53.546 313.8 12.7 321 14.2
2011-07-08 05:23:59 51°15.841 2°53.532 314.2 12.7 320 14.3
2011-07-08 05:24:05 51°15.857 2°53.51 314.3 12.7 321 14.2
2011-07-08 05:24:10 51°15.871 2°53.493 314.7 12.8 322 14.7
2011-07-08 05:24:15 51°15.884 2°53.474 314.2 12.7 318 14.3
2011-07-08 05:24:19 51°15.895 2°53.46 313.3 12.7 320 14.7
2011-07-08 05:24:25 51°15.911 2°53.437 312.3 12.6 318 14.4
2011-07-08 05:24:30 51°15.924 2°53.42 312.1 12.7 321 14.6
2011-07-08 05:24:35 51°15.938 2°53.402 313.5 12.7 320 14.9
2011-07-08 05:24:39 51°15.949 2°53.388 313.9 12.8 322 14.8
2011-07-08 05:24:45 51°15.966 2°53.367 315.3 12.7 322 14.5
2011-07-08 05:24:50 51°15.98 2°53.35 315.7 12.8 323 14.5
2011-07-08 05:24:55 51°15.994 2°53.334 316.5 12.8 323 14.5
2011-07-08 05:24:59 51°16.006 2°53.321 317.2 12.8 324 14.5
2011-07-08 05:25:04 51°16.02 2°53.305 318.6 12.8 326 14.6
2011-07-08 05:25:10 51°16.038 2°53.286 318.9 12.9 327 14.5
2011-07-08 05:25:15 51°16.053 2°53.271 320.7 12.9 328 14.6
2011-07-08 05:25:19 51°16.066 2°53.259 321.4 13 329 14.6
2011-07-08 05:25:25 51°16.085 2°53.242 323.1 13 331 14.7
2011-07-08 05:25:30 51°16.1 2°53.228 324.2 13 332 14.7
2011-07-08 05:25:35 51°16.117 2°53.216 325.7 13 334 14.7
2011-07-08 05:25:39 51°16.13 2°53.206 327.4 13.1 335 14.8
2011-07-08 05:25:45 51°16.15 2°53.191 328 13.1 334 14.7
2011-07-08 05:25:49 51°16.163 2°53.181 328.2 13 335 14.8
2011-07-08 05:25:55 51°16.183 2°53.167 329 13.1 336 14.7
2011-07-08 05:25:59 51°16.196 2°53.157 328.9 13.1 335 14.7
2011-07-08 05:26:05 51°16.216 2°53.143 328.9 13.1 337 14.8
2011-07-08 05:26:10 51°16.232 2°53.131 329.2 13.1 335 14.7
2011-07-08 05:26:15 51°16.249 2°53.119 328.9 13.1 336 14.7
2011-07-08 05:26:19 51°16.263 2°53.111 329.4 13.2 337 14.9
2011-07-08 05:26:25 51°16.283 2°53.096 329.2 13.2 336 14.8
2011-07-08 05:26:30 51°16.299 2°53.085 329.1 13.2 336 14.9
2011-07-08 05:26:35 51°16.316 2°53.072 328.6 13.2 336 14.7
2011-07-08 05:26:39 51°16.329 2°53.063 328 13.1 335 14.8
2011-07-08 05:26:44 51°16.345 2°53.05 327.9 13.1 335 14.7
2011-07-08 05:26:50 51°16.365 2°53.036 327.7 13.1 335 14.8
2011-07-08 05:26:55 51°16.382 2°53.023 327.5 13.1 335 14.9
2011-07-08 05:26:59 51°16.395 2°53.013 327.5 13 334 14.8
2011-07-08 05:27:04 51°16.411 2°53.001 327.3 13.1 334 14.9
2011-07-08 05:27:10 51°16.431 2°52.985 327 13 334 14.8
2011-07-08 05:27:15 51°16.447 2°52.973 327.1 13 335 14.7
2011-07-08 05:27:19 51°16.46 2°52.963 327 13 333 14.8
2011-07-08 05:27:25 51°16.479 2°52.948 326.7 13 334 14.7
2011-07-08 05:27:30 51°16.496 2°52.935 326.5 13 334 14.8
2011-07-08 05:27:35 51°16.512 2°52.922 326.4 13 334 14.6
2011-07-08 05:27:39 51°16.524 2°52.912 326 13 332 14.6
2011-07-08 05:27:44 51°16.541 2°52.899 325.6 13 333 14.5
2011-07-08 05:27:49 51°16.556 2°52.885 325.2 12.9 332 14.5
2011-07-08 05:27:55 51°16.575 2°52.869 324.9 12.9 331 14.4
2011-07-08 05:27:59 51°16.588 2°52.858 324.3 12.9 331 14.3
2011-07-08 05:28:05 51°16.607 2°52.841 324.1 13 332 14.2
2011-07-08 05:28:10 51°16.623 2°52.828 324.5 13 332 14.2
2011-07-08 05:28:15 51°16.638 2°52.815 324.5 12.9 332 14.1
2011-07-08 05:28:19 51°16.651 2°52.804 324.8 13 332 14.1
2011-07-08 05:28:25 51°16.67 2°52.788 325.1 12.9 332 13.9
2011-07-08 05:28:30 51°16.686 2°52.774 324.8 12.9 331 13.8
2011-07-08 05:28:35 51°16.702 2°52.761 324.7 12.9 333 13.6
2011-07-08 05:28:39 51°16.715 2°52.75 325.7 13 333 13.5
2011-07-08 05:28:45 51°16.734 2°52.735 326.7 13 333 13.2
2011-07-08 05:28:50 51°16.75 2°52.722 327.1 13 333 12.9
2011-07-08 05:28:55 51°16.766 2°52.71 327.4 13 334 12.7
2011-07-08 05:28:59 51°16.78 2°52.7 328.1 13.1 335 12.8
2011-07-08 05:29:04 51°16.796 2°52.688 329.3 13.1 335 12.7
2011-07-08 05:29:10 51°16.816 2°52.674 329.6 13.1 337 12.6
2011-07-08 05:29:15 51°16.833 2°52.662 330.5 13.1 335 12.6
2011-07-08 05:29:19 51°16.846 2°52.653 330.6 13.2 337 12.5
2011-07-08 05:29:25 51°16.866 2°52.638 330.7 13.1 336 12.4
2011-07-08 05:29:30 51°16.883 2°52.627 331 13.2 336 12.4
2011-07-08 05:29:35 51°16.899 2°52.615 330.7 13.2 336 12.6
2011-07-08 05:29:39 51°16.913 2°52.606 330.8 13.2 336 12.7
2011-07-08 05:29:44 51°16.929 2°52.594 331 13.2 336 12.6
2011-07-08 05:29:49 51°16.946 2°52.582 330.9 13.2 335 12.7
2011-07-08 05:29:55 51°16.966 2°52.567 330.2 13.2 335 12.6
2011-07-08 05:29:59 51°16.979 2°52.557 329.7 13.1 334 12.6
2011-07-08 05:30:05 51°16.999 2°52.541 328.7 13.1 333 12.5
2011-07-08 05:30:10 51°17.015 2°52.528 328 13.1 333 12.6
2011-07-08 05:30:15 51°17.031 2°52.515 327.2 13.1 333 12.7
2011-07-08 05:30:19 51°17.044 2°52.504 327.3 13.1 332 12.5
2011-07-08 05:30:25 51°17.063 2°52.488 327 13 332 12.6
2011-07-08 05:30:30 51°17.079 2°52.474 326.7 13 332 12.5
2011-07-08 05:30:35 51°17.095 2°52.461 326.5 13.1 332 12.6
2011-07-08 05:30:39 51°17.108 2°52.449 326.1 13.1 331 12.7
2011-07-08 05:30:45 51°17.127 2°52.433 325.7 13.1 332 12.7
2011-07-08 05:30:49 51°17.139 2°52.422 325.4 13.1 331 12.7
2011-07-08 05:30:55 51°17.159 2°52.406 326 13.1 333 12.9
2011-07-08 05:30:59 51°17.172 2°52.395 326.2 13 331 13.2
2011-07-08 05:31:04 51°17.188 2°52.381 326.4 13.1 333 13.1
2011-07-08 05:31:10 51°17.207 2°52.365 326.6 13 331 13.1
2011-07-08 05:31:15 51°17.223 2°52.351 326 13.1 333 13.1
2011-07-08 05:31:19 51°17.236 2°52.341 326.7 13.1 332 13
2011-07-08 05:31:25 51°17.255 2°52.324 326.8 13.1 332 13.3
2011-07-08 05:31:30 51°17.271 2°52.311 326.5 13.1 332 13.3
2011-07-08 05:31:35 51°17.287 2°52.297 326.6 13.1 332 13.2
2011-07-08 05:31:39 51°17.3 2°52.287 326.8 13.2 333 13.4
2011-07-08 05:31:44 51°17.317 2°52.274 327.4 13.1 334 13.4
2011-07-08 05:31:49 51°17.333 2°52.261 328.5 13.2 335 13.6
2011-07-08 05:31:55 51°17.353 2°52.246 329.5 13.2 334 13.8
2011-07-08 05:31:59 51°17.366 2°52.236 329.3 13.2 335 14.1
2011-07-08 05:32:05 51°17.386 2°52.222 329.8 13.2 336 14.1
2011-07-08 05:32:10 51°17.403 2°52.21 330.2 13.2 336 14.1
2011-07-08 05:32:15 51°17.42 2°52.197 330.4 13.2 336 14.4
2011-07-08 05:32:19 51°17.433 2°52.188 331.2 13.3 336 14.1
2011-07-08 05:32:25 51°17.453 2°52.173 330.2 13.2 335 14.3
2011-07-08 05:32:30 51°17.47 2°52.161 330.1 13.2 336 14
2011-07-08 05:32:35 51°17.487 2°52.149 330.6 13.2 335 14.2
2011-07-08 05:32:39 51°17.5 2°52.14 330.4 13.3 337 14.1
2011-07-08 05:32:45 51°17.52 2°52.125 331.1 13.3 336 14.3
2011-07-08 05:32:49 51°17.534 2°52.116 330.9 13.2 335 14.2
2011-07-08 05:32:55 51°17.554 2°52.101 330.5 13.2 336 14.2
2011-07-08 05:32:59 51°17.567 2°52.092 330.7 13.2 334 14.3
2011-07-08 05:33:05 51°17.587 2°52.077 329.9 13.3 336 14.2
2011-07-08 05:33:10 51°17.604 2°52.064 329.6 13.3 334 14.2
2011-07-08 05:33:15 51°17.621 2°52.052 329.6 13.3 335 13.6
2011-07-08 05:33:19 51°17.634 2°52.042 329.3 13.2 334 13.6
2011-07-08 05:33:25 51°17.654 2°52.027 328.6 13.3 336 13.8
2011-07-08 05:33:30 51°17.67 2°52.014 329 13.2 335 13.4
2011-07-08 05:33:35 51°17.687 2°52.002 329.3 13.2 336 13.3
2011-07-08 05:33:39 51°17.7 2°51.993 329.4 13.2 335 13.4
2011-07-08 05:33:44 51°17.717 2°51.98 329.9 13.2 335 12.9
2011-07-08 05:33:49 51°17.734 2°51.968 329 13.2 335 13
2011-07-08 05:33:55 51°17.754 2°51.953 328.9 13.2 335 13.2
2011-07-08 05:33:59 51°17.766 2°51.942 328.9 13.2 333 13
2011-07-08 05:34:05 51°17.786 2°51.927 328 13.2 334 12.9
2011-07-08 05:34:10 51°17.803 2°51.914 328.4 13.2 334 12.8
2011-07-08 05:34:15 51°17.819 2°51.901 328.1 13.2 333 12.9
2011-07-08 05:34:19 51°17.832 2°51.89 326.9 13.1 332 12.9
2011-07-08 05:34:25 51°17.852 2°51.874 326.6 13.2 333 13.1
2011-07-08 05:34:30 51°17.868 2°51.86 326.7 13.2 332 13
2011-07-08 05:34:35 51°17.884 2°51.846 326.2 13.2 332 13.2
2011-07-08 05:34:39 51°17.896 2°51.835 325.9 13.1 331 13.2
2011-07-08 05:34:45 51°17.916 2°51.818 325.8 13.1 331 13
2011-07-08 05:34:49 51°17.928 2°51.806 325.2 13.1 330 13.2
2011-07-08 05:34:55 51°17.947 2°51.789 325.3 13.2 332 13.3
2011-07-08 05:34:59 51°17.96 2°51.779 326.2 13.2 332 13.1
2011-07-08 05:35:05 51°17.979 2°51.762 326.6 13.2 331 13.4
2011-07-08 05:35:10 51°17.995 2°51.747 326 13.2 330 13.3
2011-07-08 05:35:15 51°18.011 2°51.734 325.8 13.2 332 13.4
2011-07-08 05:35:19 51°18.024 2°51.723 326.9 13.2 331 13.5
2011-07-08 05:35:24 51°18.04 2°51.709 327 13.2 333 13.5
2011-07-08 05:35:29 51°18.057 2°51.696 327.3 13.2 332 13.7
2011-07-08 05:35:35 51°18.076 2°51.68 328.1 13.2 333 13.9
2011-07-08 05:35:39 51°18.09 2°51.669 328.2 13.2 333 13.7
2011-07-08 05:35:44 51°18.106 2°51.656 328.5 13.2 334 13.9
2011-07-08 05:35:50 51°18.126 2°51.641 328.7 13.2 334 13.9
2011-07-08 05:35:55 51°18.142 2°51.628 329 13.2 334 14.1
2011-07-08 05:35:59 51°18.155 2°51.618 329.7 13.2 333 14
2011-07-08 05:36:05 51°18.175 2°51.602 329.1 13.3 334 14.2
2011-07-08 05:36:10 51°18.192 2°51.589 328.7 13.2 333 14.3
2011-07-08 05:36:15 51°18.208 2°51.576 328.6 13.2 334 14.5
2011-07-08 05:36:19 51°18.221 2°51.566 329.3 13.2 334 14.7
2011-07-08 05:36:25 51°18.241 2°51.55 329.5 13.2 334 14.6
2011-07-08 05:36:30 51°18.257 2°51.537 329.4 13.2 334 14.8
2011-07-08 05:36:35 51°18.274 2°51.524 329.3 13.3 334 14.7
2011-07-08 05:36:39 51°18.288 2°51.515 329.8 13.3 336 15
2011-07-08 05:36:45 51°18.307 2°51.5 330 13.2 335 15.1
2011-07-08 05:36:50 51°18.324 2°51.488 330.2 13.2 336 15.2
2011-07-08 05:36:55 51°18.341 2°51.476 330.4 13.2 335 15.3
2011-07-08 05:37:00 51°18.357 2°51.464 330.3 13.2 335 15.3
2011-07-08 05:37:05 51°18.375 2°51.452 330.5 13.3 336 15.4
2011-07-08 05:37:10 51°18.391 2°51.44 330.9 13.3 337 15.4
2011-07-08 05:37:15 51°18.408 2°51.427 330.9 13.3 334 15.6
2011-07-08 05:37:20 51°18.424 2°51.415 329.8 13.2 335 15.6
2011-07-08 05:37:25 51°18.441 2°51.402 328.9 13.2 334 15.8
2011-07-08 05:37:30 51°18.457 2°51.389 328.6 13.2 334 15.9
2011-07-08 05:37:35 51°18.474 2°51.376 328.4 13.2 334 16
2011-07-08 05:37:39 51°18.487 2°51.366 328.2 13.2 334 16.2
2011-07-08 05:37:45 51°18.507 2°51.35 327.8 13.2 333 16.3
2011-07-08 05:37:50 51°18.523 2°51.337 327.7 13.3 333 16.3
2011-07-08 05:37:55 51°18.539 2°51.323 327.5 13.2 333 16.3
2011-07-08 05:37:59 51°18.552 2°51.313 327.3 13.2 333 16.5
2011-07-08 05:38:04 51°18.569 2°51.299 327.1 13.2 333 16.5
2011-07-08 05:38:10 51°18.588 2°51.284 327.2 13.2 333 16.8
2011-07-08 05:38:15 51°18.604 2°51.27 327.4 13.2 333 16.7
2011-07-08 05:38:19 51°18.617 2°51.26 327.3 13.2 333 16.6
2011-07-08 05:38:24 51°18.634 2°51.247 327.4 13.1 333 16.7
2011-07-08 05:38:30 51°18.653 2°51.23 327.4 13.2 332 16.9
2011-07-08 05:38:35 51°18.669 2°51.217 327.3 13.2 333 16.8
2011-07-08 05:38:39 51°18.682 2°51.206 327.2 13.2 332 16.9
2011-07-08 05:38:45 51°18.702 2°51.19 326.7 13.1 332 16.9
2011-07-08 05:38:49 51°18.714 2°51.179 326.8 13.1 333 17.1
2011-07-08 05:38:55 51°18.734 2°51.163 327.4 13.2 333 17
2011-07-08 05:38:59 51°18.747 2°51.153 327.8 13.2 334 17.2
2011-07-08 05:39:05 51°18.767 2°51.138 328.3 13.1 334 17.1
2011-07-08 05:39:10 51°18.783 2°51.124 328.6 13.1 333 17.1
2011-07-08 05:39:15 51°18.799 2°51.111 328 13.1 333 17.4
2011-07-08 05:39:19 51°18.812 2°51.101 328 13.1 334 17.2
2011-07-08 05:39:25 51°18.832 2°51.086 328.6 13.1 334 17.2
2011-07-08 05:39:30 51°18.848 2°51.072 328.2 13.1 333 17.4
2011-07-08 05:39:35 51°18.865 2°51.06 328.2 13.1 334 17.4
2011-07-08 05:39:40 51°18.881 2°51.046 328.3 13.1 333 17.6
2011-07-08 05:39:45 51°18.897 2°51.033 328.1 13.1 333 17.7
2011-07-08 05:39:49 51°18.91 2°51.022 327.6 13.1 333 17.5
2011-07-08 05:39:55 51°18.93 2°51.008 328.2 13.2 335 17.5
2011-07-08 05:39:59 51°18.943 2°50.997 328.9 13.1 334 17.3
2011-07-08 05:40:05 51°18.963 2°50.983 329.2 13.2 335 17.5
2011-07-08 05:40:10 51°18.979 2°50.97 329.1 13.1 334 17.7
2011-07-08 05:40:15 51°18.996 2°50.958 328.9 13.1 335 17.5
2011-07-08 05:40:19 51°19.009 2°50.948 329.5 13.2 336 17.5
2011-07-08 05:40:25 51°19.029 2°50.934 330.4 13.2 336 17.5
2011-07-08 05:40:30 51°19.046 2°50.922 330.4 13.3 338 17.8
2011-07-08 05:40:35 51°19.063 2°50.911 331.7 13.3 337 17.5
2011-07-08 05:40:39 51°19.077 2°50.902 332.6 13.3 337 17.5
2011-07-08 05:40:45 51°19.098 2°50.889 332.5 13.3 338 17.5
2011-07-08 05:40:49 51°19.111 2°50.88 332.5 13.2 337 17.6
2011-07-08 05:40:55 51°19.132 2°50.867 333.2 13.3 339 17.4
2011-07-08 05:40:59 51°19.145 2°50.857 332.8 13.2 336 17.3
2011-07-08 05:41:05 51°19.165 2°50.844 332.5 13.2 337 17.5
2011-07-08 05:41:10 51°19.182 2°50.833 332.2 13.1 337 17.5
2011-07-08 05:41:15 51°19.199 2°50.822 332.9 13.1 339 17.3
2011-07-08 05:41:19 51°19.212 2°50.813 333.2 13.1 337 17.2
2011-07-08 05:41:25 51°19.233 2°50.801 333 13.1 339 17.2
2011-07-08 05:41:29 51°19.246 2°50.792 333.4 13.1 338 17
2011-07-08 05:41:35 51°19.267 2°50.78 333.7 13 339 17
2011-07-08 05:41:39 51°19.281 2°50.772 335 13.1 340 17.3
2011-07-08 05:41:45 51°19.301 2°50.759 334.2 13.1 340 17.1
2011-07-08 05:41:49 51°19.315 2°50.751 334.4 13.1 338 16.8
2011-07-08 05:41:55 51°19.335 2°50.738 334.7 13.1 339 16.5
2011-07-08 05:41:59 51°19.348 2°50.73 333.6 13.1 338 16.3
2011-07-08 05:42:05 51°19.368 2°50.716 333.6 13.1 338 16.3
2011-07-08 05:42:10 51°19.385 2°50.705 333.3 13.1 338 15.8
2011-07-08 05:42:15 51°19.402 2°50.694 332.7 13.1 337 15.9
2011-07-08 05:42:19 51°19.416 2°50.685 332.6 13.1 337 15.4
2011-07-08 05:42:25 51°19.436 2°50.671 332.3 13.1 336 15.5
2011-07-08 05:42:30 51°19.452 2°50.659 331.8 13.1 336 15.4
2011-07-08 05:42:35 51°19.469 2°50.648 331.4 13 337 15.2
2011-07-08 05:42:39 51°19.482 2°50.638 331.5 13 335 15.2
2011-07-08 05:42:44 51°19.498 2°50.626 331.3 13 336 15.1
2011-07-08 05:42:50 51°19.518 2°50.613 331.7 13 336 15
2011-07-08 05:42:55 51°19.534 2°50.601 331.1 12.9 335 14.9
2011-07-08 05:42:59 51°19.548 2°50.592 331 13 337 15
2011-07-08 05:43:05 51°19.567 2°50.578 331.3 13 336 14.7
2011-07-08 05:43:10 51°19.584 2°50.567 331.9 13.1 337 14.7
2011-07-08 05:43:15 51°19.601 2°50.555 332 13.1 336 14.6
2011-07-08 05:43:19 51°19.614 2°50.546 331.8 13 337 14.4
2011-07-08 05:43:25 51°19.634 2°50.532 331.9 13.1 335 14.6
2011-07-08 05:43:29 51°19.647 2°50.523 331.5 13.1 337 14.7
2011-07-08 05:43:35 51°19.668 2°50.509 332 13.1 337 15
2011-07-08 05:43:39 51°19.681 2°50.5 332.5 13.1 338 15.2
2011-07-08 05:43:45 51°19.701 2°50.487 333 13.2 337 15.1
2011-07-08 05:43:49 51°19.715 2°50.479 333.3 13.2 340 15.1
2011-07-08 05:43:55 51°19.736 2°50.466 334.1 13.2 337 15.5
2011-07-08 05:43:59 51°19.749 2°50.457 333.4 13.1 339 15.6
2011-07-08 05:44:05 51°19.77 2°50.445 333.6 13.2 338 15.6
2011-07-08 05:44:10 51°19.787 2°50.434 333.5 13.2 339 15.9
2011-07-08 05:44:15 51°19.804 2°50.424 334 13.1 340 16
2011-07-08 05:44:19 51°19.817 2°50.415 334.4 13.1 339 16.2
2011-07-08 05:44:25 51°19.838 2°50.404 334.8 13.2 340 16.2
2011-07-08 05:44:30 51°19.855 2°50.393 335 13.2 339 16.3
2011-07-08 05:44:35 51°19.872 2°50.383 333.8 13.2 340 16.5
2011-07-08 05:44:39 51°19.886 2°50.374 334.1 13.2 340 16.7
2011-07-08 05:44:44 51°19.903 2°50.364 334.4 13.2 339 16.9
2011-07-08 05:44:50 51°19.924 2°50.351 333.8 13.2 338 17
2011-07-08 05:44:55 51°19.941 2°50.341 333.3 13.2 339 17.2
2011-07-08 05:44:59 51°19.955 2°50.333 333.2 13.2 338 17.3
2011-07-08 05:45:05 51°19.975 2°50.319 332.8 13.2 337 17.4
2011-07-08 05:45:10 51°19.992 2°50.308 331.6 13.2 339 17.4
2011-07-08 05:45:15 51°20.009 2°50.297 332.2 13.2 338 17.4
2011-07-08 05:45:19 51°20.022 2°50.288 332.7 13.1 337 17.5
2011-07-08 05:45:25 51°20.043 2°50.275 332.5 13.2 338 17.8
2011-07-08 05:45:29 51°20.056 2°50.265 332.2 13.1 337 17.7
2011-07-08 05:45:35 51°20.076 2°50.252 331.7 13.1 337 17.9
2011-07-08 05:45:39 51°20.089 2°50.243 331.8 13.1 336 18.2
2011-07-08 05:45:45 51°20.109 2°50.228 331 13.1 335 18.2
2011-07-08 05:45:49 51°20.122 2°50.219 330 13.1 336 18.3
2011-07-08 05:45:55 51°20.142 2°50.205 330.5 13.1 337 18.7
2011-07-08 05:45:59 51°20.155 2°50.195 330.6 13 334 19.1
2011-07-08 05:46:05 51°20.175 2°50.181 329.9 13.1 337 19.5
2011-07-08 05:46:10 51°20.192 2°50.169 330.7 13.2 336 19.4
2011-07-08 05:46:15 51°20.208 2°50.157 330.8 13.3 336 19.9
2011-07-08 05:46:19 51°20.222 2°50.148 330.7 13.2 336 19.9
2011-07-08 05:46:25 51°20.242 2°50.135 330.5 13.2 337 20.1
2011-07-08 05:46:30 51°20.259 2°50.124 331.5 13.2 338 20.5
2011-07-08 05:46:35 51°20.276 2°50.112 332.3 13.2 337 20.9
2011-07-08 05:46:39 51°20.289 2°50.104 332.2 13.2 338 21.1
2011-07-08 05:46:44 51°20.306 2°50.092 332.6 13.2 337 21.2
2011-07-08 05:46:49 51°20.323 2°50.082 332.5 13.3 339 21.4
2011-07-08 05:46:55 51°20.344 2°50.069 333.1 13.3 338 21.7
2011-07-08 05:46:59 51°20.358 2°50.061 333.2 13.4 339 21.8
2011-07-08 05:47:05 51°20.378 2°50.047 333.4 13.3 338 22
2011-07-08 05:47:10 51°20.396 2°50.036 332.5 13.3 338 22.4
2011-07-08 05:47:15 51°20.413 2°50.026 332.3 13.3 339 22.6
2011-07-08 05:47:19 51°20.426 2°50.016 332.1 13.3 337 22.8
2011-07-08 05:47:24 51°20.443 2°50.005 331.9 13.3 338 23.1
2011-07-08 05:47:29 51°20.461 2°49.995 331.8 13.3 340 23.1
2011-07-08 05:47:35 51°20.482 2°49.984 334.2 13.5 343 23.7
2011-07-08 05:47:39 51°20.496 2°49.977 337.3 13.5 344 23.7
2011-07-08 05:47:44 51°20.515 2°49.97 339.1 13.6 346 23.9
2011-07-08 05:47:50 51°20.537 2°49.962 341 13.6 347 24.2
2011-07-08 05:47:55 51°20.556 2°49.957 342.9 13.7 350 24.2
2011-07-08 05:47:59 51°20.571 2°49.953 345.4 13.7 351 24.5
2011-07-08 05:48:04 51°20.59 2°49.95 347 13.8 355 24.7
2011-07-08 05:48:10 51°20.612 2°49.945 348.7 13.8 353 24.9
2011-07-08 05:48:15 51°20.632 2°49.944 349.2 14 358 24.8
2011-07-08 05:48:19 51°20.647 2°49.944 352 14 358 25.1
2011-07-08 05:48:25 51°20.671 2°49.944 353.6 14 1 24.9
2011-07-08 05:48:30 51°20.69 2°49.944 355 13.9 -999 25.1
2011-07-08 05:48:35 51°20.709 2°49.945 355.2 14.1 3 25
2011-07-08 05:48:39 51°20.725 2°49.947 357.7 14.1 4 25.1
2011-07-08 05:48:45 51°20.749 2°49.951 359.8 14.2 7 25
2011-07-08 05:48:50 51°20.768 2°49.955 2 14.2 8 25.5
2011-07-08 05:48:55 51°20.788 2°49.962 4.2 14.2 11 25.7
2011-07-08 05:48:59 51°20.803 2°49.966 6.3 14.2 10 25.5
2011-07-08 05:49:05 51°20.826 2°49.974 7.3 14.3 14 25.5
2011-07-08 05:49:10 51°20.846 2°49.98 8.3 14.1 11 25.7
2011-07-08 05:49:15 51°20.865 2°49.989 9.5 14.2 15 25.8
2011-07-08 05:49:19 51°20.88 2°49.994 10 14.1 13 25.7
2011-07-08 05:49:24 51°20.899 2°50.002 11 14 13 25.6
2011-07-08 05:49:30 51°20.922 2°50.012 10.6 14.1 16 25.7
2011-07-08 05:49:35 51°20.94 2°50.018 11.8 13.9 12 25.9
2011-07-08 05:49:39 51°20.955 2°50.024 11 13.9 15 25.8
2011-07-08 05:49:45 51°20.978 2°50.034 12.2 13.8 15 25.8
2011-07-08 05:49:49 51°20.993 2°50.04 12.1 13.9 15 25.8
2011-07-08 05:49:55 51°21.015 2°50.051 12.7 13.9 15 25.7
2011-07-08 05:49:59 51°21.03 2°50.056 12.2 14 15 25.8
2011-07-08 05:50:04 51°21.049 2°50.065 12.6 14 15 25.6
2011-07-08 05:50:10 51°21.072 2°50.073 11.8 14 13 25.9
2011-07-08 05:50:14 51°21.087 2°50.079 11.7 14 14 25.6
2011-07-08 05:50:19 51°21.105 2°50.087 11.2 14.1 15 25.5
2011-07-08 05:50:24 51°21.125 2°50.094 11.6 14.2 14 25.7
2011-07-08 05:50:30 51°21.147 2°50.103 11.3 14.2 14 25.7
2011-07-08 05:50:35 51°21.167 2°50.112 11.6 14.3 15 25.9
2011-07-08 05:50:39 51°21.182 2°50.117 10.9 14.3 14 25.9
2011-07-08 05:50:45 51°21.205 2°50.127 11.8 14.2 15 25.8
2011-07-08 05:50:49 51°21.221 2°50.131 10.5 14.1 11 25.7
2011-07-08 05:50:55 51°21.243 2°50.14 10.8 14.1 14 25.8
2011-07-08 05:50:59 51°21.259 2°50.144 9.3 14 10 25.5
2011-07-08 05:51:05 51°21.282 2°50.154 10.2 14.2 14 25.4
2011-07-08 05:51:10 51°21.301 2°50.16 10 14.2 12 25.6
2011-07-08 05:51:15 51°21.32 2°50.166 9.9 14.2 12 25.4
2011-07-08 05:51:19 51°21.336 2°50.172 9.9 14.2 12 25.2
2011-07-08 05:51:25 51°21.359 2°50.18 9.1 14.2 12 25.3
2011-07-08 05:51:30 51°21.378 2°50.185 8.4 14.2 11 25.4
2011-07-08 05:51:35 51°21.397 2°50.193 8.8 14.1 13 25.4
2011-07-08 05:51:39 51°21.413 2°50.198 9.3 14 13 25.2
2011-07-08 05:51:44 51°21.431 2°50.205 9.9 14 13 25.3
2011-07-08 05:51:50 51°21.454 2°50.214 9.7 14 14 25.4
2011-07-08 05:51:55 51°21.473 2°50.221 10.6 14.1 13 25.4
2011-07-08 05:51:59 51°21.488 2°50.226 9.8 14.1 13 25.1
2011-07-08 05:52:05 51°21.511 2°50.234 9.8 14.1 12 25.2
2011-07-08 05:52:09 51°21.527 2°50.239 8.8 14.1 11 25.2
2011-07-08 05:52:15 51°21.549 2°50.245 8.2 13.9 9 25.5
2011-07-08 05:52:19 51°21.564 2°50.25 7.4 13.8 12 25.5
2011-07-08 05:52:24 51°21.583 2°50.256 8.1 13.9 11 25.4
2011-07-08 05:52:30 51°21.606 2°50.263 8.1 14 11 25.3
2011-07-08 05:52:35 51°21.625 2°50.269 8.1 14 11 25.4
2011-07-08 05:52:39 51°21.641 2°50.273 8.1 14 9 25.7
2011-07-08 05:52:44 51°21.66 2°50.277 6.3 13.9 7 25.5
2011-07-08 05:52:50 51°21.683 2°50.281 4.1 13.8 7 25.6
2011-07-08 05:52:55 51°21.702 2°50.284 4.4 13.8 6 25.5
2011-07-08 05:52:59 51°21.717 2°50.287 2.9 13.8 6 25.5
2011-07-08 05:53:05 51°21.739 2°50.289 1.1 13.6 4 25.4
2011-07-08 05:53:09 51°21.755 2°50.291 1.5 13.6 4 25.4
2011-07-08 05:53:15 51°21.777 2°50.291 359.4 13.6 -999 25.3
2011-07-08 05:53:19 51°21.792 2°50.292 358 13.7 2 25.1
2011-07-08 05:53:25 51°21.815 2°50.29 355.9 13.5 357 25
2011-07-08 05:53:30 51°21.834 2°50.29 354.5 13.6 -999 25.1
2011-07-08 05:53:35 51°21.852 2°50.287 354.7 13.5 355 24.8
2011-07-08 05:53:39 51°21.868 2°50.286 353.2 13.7 357 25.1
2011-07-08 05:53:45 51°21.89 2°50.282 351.7 13.5 352 25
2011-07-08 05:53:50 51°21.908 2°50.28 350.3 13.6 356 24.9
2011-07-08 05:53:55 51°21.927 2°50.274 349.1 13.4 350 25.3
2011-07-08 05:53:59 51°21.941 2°50.271 347.9 13.5 354 25.3
2011-07-08 05:54:04 51°21.96 2°50.266 347.3 13.4 349 25.1
2011-07-08 05:54:10 51°21.982 2°50.259 345.6 13.4 351 25
2011-07-08 05:54:15 51°22 2°50.254 345.6 13.5 350 25
2011-07-08 05:54:19 51°22.015 2°50.25 345.9 13.5 349 25.3
2011-07-08 05:54:25 51°22.037 2°50.244 344.9 13.4 351 25.4
2011-07-08 05:54:30 51°22.055 2°50.238 344.8 13.4 349 25.7
2011-07-08 05:54:35 51°22.074 2°50.233 345.2 13.5 351 25.7
2011-07-08 05:54:39 51°22.089 2°50.229 345.6 13.5 349 25.3
2011-07-08 05:54:44 51°22.107 2°50.223 344.9 13.6 350 25.7
2011-07-08 05:54:50 51°22.129 2°50.217 344.9 13.4 348 25.9
2011-07-08 05:54:55 51°22.147 2°50.211 343.9 13.4 350 25.8
2011-07-08 05:54:59 51°22.162 2°50.208 345.5 13.4 350 25.7
2011-07-08 05:55:05 51°22.184 2°50.201 344.9 13.4 350 25.9
2011-07-08 05:55:10 51°22.202 2°50.196 345.6 13.5 352 25.8
2011-07-08 05:55:15 51°22.221 2°50.192 346.4 13.5 352 25.8
2011-07-08 05:55:19 51°22.236 2°50.188 347 13.5 351 25.6
2011-07-08 05:55:25 51°22.258 2°50.182 346.3 13.5 351 25.5
2011-07-08 05:55:30 51°22.276 2°50.179 347.5 13.4 354 25.5
2011-07-08 05:55:35 51°22.295 2°50.173 346 13.3 349 25.5
2011-07-08 05:55:39 51°22.309 2°50.171 345.6 13.5 353 25.7
2011-07-08 05:55:45 51°22.332 2°50.165 345.7 13.5 351 25.4
2011-07-08 05:55:50 51°22.35 2°50.16 346.7 13.5 349 25.7
2011-07-08 05:55:55 51°22.368 2°50.155 345 13.6 352 25.6
2011-07-08 05:55:59 51°22.383 2°50.15 344.7 13.4 348 25.4
2011-07-08 05:56:04 51°22.401 2°50.145 344.6 13.4 352 25.2
2011-07-08 05:56:10 51°22.423 2°50.138 344.7 13.3 349 25.4
2011-07-08 05:56:15 51°22.442 2°50.135 345.7 13.5 353 25.6
2011-07-08 05:56:19 51°22.457 2°50.13 346.2 13.4 349 25.8
2011-07-08 05:56:24 51°22.475 2°50.126 345.5 13.4 352 25.7
2011-07-08 05:56:30 51°22.497 2°50.12 345.7 13.5 351 25.7
2011-07-08 05:56:35 51°22.516 2°50.116 345.6 13.5 351 25
2011-07-08 05:56:39 51°22.53 2°50.11 344.8 13.3 348 23.5
2011-07-08 05:56:45 51°22.552 2°50.106 346 13.4 354 23.5
2011-07-08 05:56:50 51°22.571 2°50.101 346.3 13.4 350 24
2011-07-08 05:56:55 51°22.589 2°50.098 346.4 13.5 353 25.1
2011-07-08 05:56:59 51°22.604 2°50.095 347.4 13.5 352 24.7
2011-07-08 05:57:04 51°22.623 2°50.089 346.5 13.5 351 23.6
2011-07-08 05:57:10 51°22.645 2°50.084 346 13.5 350 23.2
2011-07-08 05:57:15 51°22.663 2°50.078 344.4 13.4 350 22
2011-07-08 05:57:19 51°22.678 2°50.075 345.6 13.4 351 23.5
2011-07-08 05:57:25 51°22.699 2°50.069 346.2 13.4 351 22.9
2011-07-08 05:57:30 51°22.718 2°50.065 346.1 13.6 351 22.5
2011-07-08 05:57:35 51°22.737 2°50.06 346.2 13.6 351 21.8
2011-07-08 05:57:39 51°22.752 2°50.056 346.4 13.7 351 20.9
2011-07-08 05:57:45 51°22.774 2°50.05 346.9 13.5 350 19.7
2011-07-08 05:57:50 51°22.792 2°50.045 345.5 13.4 350 17.7
2011-07-08 05:57:55 51°22.811 2°50.04 344.9 13.4 351 16.8
2011-07-08 05:57:59 51°22.826 2°50.036 345.3 13.5 352 18.4
2011-07-08 05:58:05 51°22.848 2°50.03 346.3 13.6 350 18.3
2011-07-08 05:58:10 51°22.867 2°50.026 347 13.7 352 18.4
2011-07-08 05:58:15 51°22.886 2°50.021 346.9 13.6 350 19.6
2011-07-08 05:58:19 51°22.9 2°50.017 346.3 13.6 350 19.6
2011-07-08 05:58:24 51°22.919 2°50.011 345.4 13.5 349 18.3
2011-07-08 05:58:30 51°22.941 2°50.005 344.9 13.6 350 16.3
2011-07-08 05:58:35 51°22.959 2°49.999 345.7 13.5 349 18.5
2011-07-08 05:58:39 51°22.974 2°49.996 345.5 13.5 351 19.6
2011-07-08 05:58:45 51°22.996 2°49.989 345.6 13.6 351 19.7
2011-07-08 05:58:49 51°23.011 2°49.985 346.4 13.6 350 18.4
2011-07-08 05:58:55 51°23.034 2°49.98 346.1 13.5 351 17.7
2011-07-08 05:58:59 51°23.049 2°49.976 346.5 13.5 351 19.2
2011-07-08 05:59:04 51°23.067 2°49.972 347.4 13.6 353 19
2011-07-08 05:59:10 51°23.09 2°49.967 347.3 13.5 350 18.1
2011-07-08 05:59:15 51°23.108 2°49.962 346.4 13.7 352 19.1
2011-07-08 05:59:19 51°23.123 2°49.959 347 13.7 350 18.8
2011-07-08 05:59:24 51°23.142 2°49.953 346 13.6 349 17.5
2011-07-08 05:59:30 51°23.164 2°49.947 344.8 13.6 353 19.4
2011-07-08 05:59:35 51°23.183 2°49.94 346.6 13.5 347 17.9
2011-07-08 05:59:39 51°23.198 2°49.937 344.8 13.6 352 18.8
2011-07-08 05:59:45 51°23.219 2°49.93 344.5 13.4 348 19.4
2011-07-08 05:59:49 51°23.234 2°49.927 345.4 13.6 353 20.1
2011-07-08 05:59:55 51°23.257 2°49.921 346.5 13.6 350 19.6
2011-07-08 05:59:59 51°23.272 2°49.918 347.1 13.7 353 18.4
2011-07-08 06:00:05 51°23.294 2°49.912 347.5 13.6 350 20.1
2011-07-08 06:00:10 51°23.313 2°49.907 347 13.7 351 21
2011-07-08 06:00:15 51°23.332 2°49.902 346.4 13.6 349 21.3
2011-07-08 06:00:19 51°23.346 2°49.896 345.9 13.4 348 21.3
2011-07-08 06:00:25 51°23.368 2°49.89 345.1 13.5 349 20.6
2011-07-08 06:00:30 51°23.387 2°49.884 345.1 13.4 348 19.8
2011-07-08 06:00:35 51°23.405 2°49.878 344.4 13.4 348 21.2
2011-07-08 06:00:39 51°23.419 2°49.872 344.8 13.5 347 21.7
2011-07-08 06:00:44 51°23.438 2°49.866 344 13.4 347 22.1
2011-07-08 06:00:50 51°23.459 2°49.858 343.5 13.3 347 22.6
2011-07-08 06:00:55 51°23.478 2°49.853 344.6 13.5 350 22.6
2011-07-08 06:00:59 51°23.492 2°49.847 345.6 13.6 348 22.7
2011-07-08 06:01:05 51°23.515 2°49.842 345.8 13.5 351 23.1
2011-07-08 06:01:09 51°23.529 2°49.838 346.7 13.4 351 23.3
2011-07-08 06:01:15 51°23.552 2°49.832 348.1 13.5 350 23.4
2011-07-08 06:01:19 51°23.566 2°49.827 346.8 13.4 349 23.7
2011-07-08 06:01:24 51°23.585 2°49.823 346.8 13.5 352 23.8
2011-07-08 06:01:30 51°23.607 2°49.816 347.1 13.5 348 24.2
2011-07-08 06:01:35 51°23.626 2°49.812 347 13.6 351 24.3
2011-07-08 06:01:39 51°23.64 2°49.806 346.2 13.5 348 24.6
2011-07-08 06:01:45 51°23.662 2°49.801 346.6 13.5 351 25.1
2011-07-08 06:01:50 51°23.681 2°49.794 346.1 13.5 348 25.3
2011-07-08 06:01:55 51°23.699 2°49.791 346.3 13.5 352 25.4
2011-07-08 06:01:59 51°23.714 2°49.785 345.3 13.4 347 25.4
2011-07-08 06:02:05 51°23.736 2°49.779 346.2 13.6 352 25.1
2011-07-08 06:02:10 51°23.754 2°49.774 347.2 13.6 349 25.2
2011-07-08 06:02:15 51°23.773 2°49.767 345.6 13.5 348 25.2
2011-07-08 06:02:19 51°23.788 2°49.763 345.5 13.6 351 24.9
2011-07-08 06:02:25 51°23.81 2°49.757 346.5 13.7 350 25.4
2011-07-08 06:02:30 51°23.829 2°49.752 346.3 13.6 351 24.8
2011-07-08 06:02:35 51°23.848 2°49.747 347 13.7 350 25.2
2011-07-08 06:02:39 51°23.863 2°49.742 345.9 13.5 349 24.9
2011-07-08 06:02:45 51°23.885 2°49.737 346.4 13.5 351 24.8
2011-07-08 06:02:50 51°23.903 2°49.731 346.7 13.4 349 24.3
2011-07-08 06:02:55 51°23.922 2°49.728 346.9 13.6 352 24.2
2011-07-08 06:02:59 51°23.936 2°49.723 347.2 13.6 350 24.1
2011-07-08 06:03:04 51°23.955 2°49.719 347.5 13.5 349 24.3
2011-07-08 06:03:10 51°23.977 2°49.712 346.1 13.7 352 24
2011-07-08 06:03:15 51°23.996 2°49.707 347 13.7 349 24.3
2011-07-08 06:03:19 51°24.011 2°49.703 346.4 13.7 352 24.2
2011-07-08 06:03:25 51°24.033 2°49.697 346.8 13.6 349 24.5
2011-07-08 06:03:30 51°24.051 2°49.692 347 13.6 351 24.6
2011-07-08 06:03:35 51°24.07 2°49.687 346.3 13.5 349 24.9
2011-07-08 06:03:39 51°24.085 2°49.683 346.3 13.6 352 25.1
2011-07-08 06:03:44 51°24.103 2°49.678 347.4 13.6 349 25.1
2011-07-08 06:03:50 51°24.126 2°49.673 346.6 13.7 353 25.3
2011-07-08 06:03:55 51°24.144 2°49.667 347 13.7 350 24.9
2011-07-08 06:03:59 51°24.159 2°49.664 347 13.7 351 25.1
2011-07-08 06:04:05 51°24.182 2°49.658 346.4 13.7 351 25.1
2011-07-08 06:04:10 51°24.201 2°49.653 346.8 13.7 351 25.1
2011-07-08 06:04:15 51°24.219 2°49.648 346.1 13.6 351 25.1
2011-07-08 06:04:19 51°24.234 2°49.644 346.9 13.4 351 24.9
2011-07-08 06:04:25 51°24.256 2°49.637 345.6 13.3 349 25
2011-07-08 06:04:30 51°24.274 2°49.633 346.1 13.5 351 25
2011-07-08 06:04:35 51°24.293 2°49.627 346.1 13.5 349 24.7
2011-07-08 06:04:39 51°24.308 2°49.624 346.5 13.7 352 24.7
2011-07-08 06:04:45 51°24.33 2°49.616 345.7 13.6 347 24.8
2011-07-08 06:04:50 51°24.348 2°49.611 345.3 13.8 351 24.8
2011-07-08 06:04:55 51°24.367 2°49.605 345.7 13.6 348 24.7
2011-07-08 06:04:59 51°24.382 2°49.601 344.6 13.5 349 24.9
2011-07-08 06:05:04 51°24.4 2°49.596 346 13.5 351 24.8
2011-07-08 06:05:10 51°24.422 2°49.589 345.1 13.5 348 25.1
2011-07-08 06:05:15 51°24.441 2°49.585 346.1 13.6 352 25
2011-07-08 06:05:19 51°24.456 2°49.578 345.5 13.5 349 25.1
2011-07-08 06:05:25 51°24.478 2°49.575 347.4 13.5 353 24.8
2011-07-08 06:05:30 51°24.496 2°49.568 345.6 13.4 348 24.9
2011-07-08 06:05:35 51°24.514 2°49.565 345.6 13.5 352 24.9
2011-07-08 06:05:39 51°24.529 2°49.559 346.4 13.5 349 25
2011-07-08 06:05:44 51°24.547 2°49.555 346.1 13.5 351 25
2011-07-08 06:05:50 51°24.569 2°49.548 345.5 13.4 348 24.9
2011-07-08 06:05:55 51°24.588 2°49.544 346.3 13.5 352 25
2011-07-08 06:05:59 51°24.602 2°49.538 345.6 13.3 347 25
2011-07-08 06:06:04 51°24.621 2°49.534 345.3 13.5 351 24.8
2011-07-08 06:06:10 51°24.643 2°49.528 345.7 13.5 350 25
2011-07-08 06:06:15 51°24.662 2°49.523 346.2 13.4 351 24.5
2011-07-08 06:06:19 51°24.677 2°49.519 347.2 13.5 350 24.9
2011-07-08 06:06:25 51°24.698 2°49.511 344.5 13.4 348 24.8
2011-07-08 06:06:30 51°24.717 2°49.506 344.6 13.4 349 24.7
2011-07-08 06:06:35 51°24.735 2°49.498 344.1 13.4 346 24.7
2011-07-08 06:06:39 51°24.749 2°49.495 344 13.5 350 24.6
2011-07-08 06:06:45 51°24.771 2°49.487 344.4 13.4 348 24.7
2011-07-08 06:06:49 51°24.786 2°49.484 345.6 13.5 353 24.6
2011-07-08 06:06:55 51°24.808 2°49.478 347 13.4 348 24.5
2011-07-08 06:06:59 51°24.823 2°49.474 345.6 13.6 351 24.5
2011-07-08 06:07:05 51°24.845 2°49.469 347.7 13.7 351 25
2011-07-08 06:07:10 51°24.864 2°49.463 346.4 13.6 349 24.8
2011-07-08 06:07:15 51°24.882 2°49.458 345.6 13.5 350 24.8
2011-07-08 06:07:19 51°24.897 2°49.453 345.5 13.6 349 24.7
2011-07-08 06:07:25 51°24.92 2°49.447 345.2 13.6 351 24.9
2011-07-08 06:07:30 51°24.938 2°49.442 346.3 13.6 351 24.9
2011-07-08 06:07:35 51°24.957 2°49.437 347.5 13.5 351 24.7
2011-07-08 06:07:39 51°24.972 2°49.433 345.8 13.4 350 24.7
2011-07-08 06:07:44 51°24.99 2°49.43 346.5 13.5 352 24.9
2011-07-08 06:07:50 51°25.012 2°49.421 345.6 13.5 348 24.6
2011-07-08 06:07:55 51°25.031 2°49.418 345.5 13.6 352 24.7
2011-07-08 06:07:59 51°25.046 2°49.413 345.9 13.5 351 24.9
2011-07-08 06:08:04 51°25.064 2°49.41 347.1 13.4 352 24.6
2011-07-08 06:08:10 51°25.086 2°49.403 345.6 13.4 349 24.6
2011-07-08 06:08:15 51°25.105 2°49.399 345.5 13.5 352 24.7
2011-07-08 06:08:19 51°25.119 2°49.395 346.1 13.4 349 24.6
2011-07-08 06:08:25 51°25.141 2°49.389 344.3 13.4 351 24.5
2011-07-08 06:08:30 51°25.159 2°49.383 346.1 13.4 348 24.8
2011-07-08 06:08:35 51°25.178 2°49.377 344.1 13.5 350 24.8
2011-07-08 06:08:39 51°25.192 2°49.372 343.1 13.5 348 24.9
2011-07-08 06:08:44 51°25.211 2°49.367 344.1 13.5 349 24.8
2011-07-08 06:08:50 51°25.232 2°49.357 341.2 13.4 345 24.9
2011-07-08 06:08:55 51°25.251 2°49.352 341.2 13.6 348 25
2011-07-08 06:08:59 51°25.265 2°49.346 340.8 13.5 347 25.3
2011-07-08 06:09:05 51°25.287 2°49.338 340.5 13.5 347 24.9
2011-07-08 06:09:10 51°25.305 2°49.329 340.5 13.4 345 24.9
2011-07-08 06:09:15 51°25.323 2°49.323 340.4 13.5 347 25
2011-07-08 06:09:19 51°25.338 2°49.315 338.6 13.4 342 25.1
2011-07-08 06:09:25 51°25.36 2°49.308 339.1 13.5 348 25.1
2011-07-08 06:09:30 51°25.377 2°49.298 338.7 13.3 342 25.3
2011-07-08 06:09:35 51°25.395 2°49.292 338.5 13.5 346 25.5
2011-07-08 06:09:39 51°25.41 2°49.285 338.5 13.3 344 25.3
2011-07-08 06:09:44 51°25.428 2°49.278 338.5 13.4 345 25.7
2011-07-08 06:09:50 51°25.449 2°49.269 337.6 13.3 346 25.6
2011-07-08 06:09:55 51°25.467 2°49.262 339.4 13.3 347 26
2011-07-08 06:09:59 51°25.481 2°49.255 338.1 13.3 345 25.6
2011-07-08 06:10:04 51°25.5 2°49.25 339.5 13.6 348 25.8
2011-07-08 06:10:10 51°25.521 2°49.238 338.7 13.3 342 25.9
2011-07-08 06:10:15 51°25.539 2°49.232 338 13.5 348 26
2011-07-08 06:10:19 51°25.554 2°49.225 339.4 13.3 342 25.6
2011-07-08 06:10:25 51°25.575 2°49.216 337 13.4 346 25.3
2011-07-08 06:10:29 51°25.59 2°49.211 339.2 13.3 345 25.5
2011-07-08 06:10:35 51°25.611 2°49.202 338.6 13.4 346 25.6
2011-07-08 06:10:39 51°25.626 2°49.197 339.5 13.6 348 25.7
2011-07-08 06:10:44 51°25.644 2°49.189 341.1 13.5 345 25.5
2011-07-08 06:10:50 51°25.666 2°49.181 339.8 13.6 346 25.8
2011-07-08 06:10:55 51°25.684 2°49.173 338.8 13.6 345 25.6
2011-07-08 06:10:59 51°25.699 2°49.168 339.6 13.6 346 25.7
2011-07-08 06:11:05 51°25.721 2°49.16 340.1 13.7 347 25.9
2011-07-08 06:11:10 51°25.739 2°49.152 340.2 13.6 345 25.8
2011-07-08 06:11:15 51°25.758 2°49.145 340.2 13.7 348 25.8
2011-07-08 06:11:19 51°25.773 2°49.14 341.3 13.6 347 26.2
2011-07-08 06:11:25 51°25.795 2°49.133 341.1 13.7 349 26.3
2011-07-08 06:11:30 51°25.813 2°49.126 342.3 13.6 346 26.1
2011-07-08 06:11:35 51°25.832 2°49.12 342.1 13.7 349 26.5
2011-07-08 06:11:39 51°25.846 2°49.114 340.7 13.6 347 26.6
2011-07-08 06:11:45 51°25.869 2°49.107 341.5 13.7 348 26.6
2011-07-08 06:11:50 51°25.887 2°49.098 341 13.6 345 26.3
2011-07-08 06:11:55 51°25.905 2°49.092 340.6 13.5 346 26.4
2011-07-08 06:11:59 51°25.92 2°49.085 338.9 13.6 347 26.4
2011-07-08 06:12:04 51°25.938 2°49.078 339.7 13.5 344 26.2
2011-07-08 06:12:10 51°25.959 2°49.067 338.3 13.5 343 26.2
2011-07-08 06:12:15 51°25.977 2°49.059 337.6 13.5 345 26.2
2011-07-08 06:12:19 51°25.992 2°49.053 338.5 13.6 347 26.2
2011-07-08 06:12:24 51°26.01 2°49.046 340.3 13.5 344 25.9
2011-07-08 06:12:30 51°26.032 2°49.037 339.2 13.6 346 26
2011-07-08 06:12:35 51°26.05 2°49.03 339 13.6 346 26.2
2011-07-08 06:12:39 51°26.065 2°49.022 339 13.5 345 25.8
2011-07-08 06:12:45 51°26.087 2°49.015 341.7 13.6 347 25.8
2011-07-08 06:12:49 51°26.101 2°49.008 339.8 13.5 345 25.8
2011-07-08 06:12:55 51°26.124 2°49.001 341.2 13.7 348 26.1
2011-07-08 06:12:59 51°26.138 2°48.993 339 13.4 341 25.7
2011-07-08 06:13:05 51°26.16 2°48.984 338 13.5 346 26
2011-07-08 06:13:10 51°26.178 2°48.976 339.4 13.6 346 25.7
2011-07-08 06:13:15 51°26.196 2°48.969 339.9 13.5 346 25.6
2011-07-08 06:13:19 51°26.21 2°48.963 340.1 13.6 346 25.9
2011-07-08 06:13:25 51°26.232 2°48.955 340.9 13.5 347 25.8
2011-07-08 06:13:30 51°26.25 2°48.946 340.3 13.4 344 25.8
2011-07-08 06:13:35 51°26.269 2°48.94 341.2 13.6 348 25.3
2011-07-08 06:13:39 51°26.283 2°48.934 341.6 13.6 345 24.1
2011-07-08 06:13:45 51°26.305 2°48.924 340.6 13.4 345 25.6
2011-07-08 06:13:50 51°26.323 2°48.918 340.5 13.4 347 26
2011-07-08 06:13:55 51°26.341 2°48.91 341.2 13.3 345 24.8
2011-07-08 06:13:59 51°26.355 2°48.904 341 13.5 347 21.1
2011-07-08 06:14:04 51°26.373 2°48.897 341.3 13.4 346 24.1
2011-07-08 06:14:10 51°26.396 2°48.89 342.3 13.6 349 24
2011-07-08 06:14:15 51°26.413 2°48.88 341 13.4 342 23.4
2011-07-08 06:14:19 51°26.428 2°48.876 342.3 13.8 349 23.8
2011-07-08 06:14:24 51°26.446 2°48.866 341.1 13.6 340 23.2
2011-07-08 06:14:30 51°26.468 2°48.857 339.7 13.5 345 22.6
2011-07-08 06:14:35 51°26.486 2°48.848 339.2 13.5 344 23.6
2011-07-08 06:14:39 51°26.501 2°48.843 340.5 13.5 348 23.4
2011-07-08 06:14:44 51°26.519 2°48.836 342.2 13.3 342 22.3
2011-07-08 06:14:50 51°26.539 2°48.824 338.2 13.2 342 19.8
2011-07-08 06:14:55 51°26.557 2°48.815 337.3 13.3 343 21.5
2011-07-08 06:14:59 51°26.571 2°48.809 339 13.4 344 22.4
2011-07-08 06:15:05 51°26.592 2°48.798 338.3 13.3 341 23.2
2011-07-08 06:15:10 51°26.61 2°48.791 338.9 13.4 346 24.2
2011-07-08 06:15:15 51°26.628 2°48.781 339.9 13.4 342 24.3
2011-07-08 06:15:19 51°26.643 2°48.776 340 13.4 346 24.4
2011-07-08 06:15:24 51°26.661 2°48.768 341.1 13.4 344 24.5
2011-07-08 06:15:30 51°26.682 2°48.758 340.7 13.4 344 24.7
2011-07-08 06:15:35 51°26.7 2°48.752 340.5 13.6 346 24.8
2011-07-08 06:15:40 51°26.718 2°48.742 340.2 13.5 342 24.7
2011-07-08 06:15:45 51°26.736 2°48.733 339.2 13.5 342 24.7
2011-07-08 06:15:50 51°26.754 2°48.724 338.5 13.6 343 24.5
2011-07-08 06:15:55 51°26.772 2°48.716 339.9 13.6 344 25
2011-07-08 06:15:59 51°26.786 2°48.709 339.4 13.3 344 24.6
2011-07-08 06:16:05 51°26.808 2°48.7 340.1 13.5 346 25.3
2011-07-08 06:16:10 51°26.826 2°48.692 340.4 13.3 343 25.6
2011-07-08 06:16:15 51°26.844 2°48.686 341.5 13.5 348 25.6
2011-07-08 06:16:19 51°26.858 2°48.678 340.5 13.3 343 25.5
2011-07-08 06:16:25 51°26.88 2°48.671 341.2 13.4 349 25.3
2011-07-08 06:16:30 51°26.898 2°48.662 342.3 13.3 343 25.1
2011-07-08 06:16:35 51°26.916 2°48.657 341.8 13.5 348 25.5
2011-07-08 06:16:39 51°26.931 2°48.651 341.9 13.5 347 26
2011-07-08 06:16:44 51°26.948 2°48.643 341.1 13.4 343 25.8
2011-07-08 06:16:50 51°26.97 2°48.634 341.1 13.6 347 26.1
2011-07-08 06:16:55 51°26.988 2°48.625 340.6 13.5 343 26.4
2011-07-08 06:16:59 51°27.003 2°48.62 340.7 13.5 347 26.7
2011-07-08 06:17:04 51°27.02 2°48.612 341 13.2 342 26.9
2011-07-08 06:17:10 51°27.042 2°48.602 339.5 13.4 345 27
2011-07-08 06:17:15 51°27.06 2°48.595 341.1 13.5 345 26.9
2011-07-08 06:17:19 51°27.074 2°48.588 340.9 13.5 345 27.1
2011-07-08 06:17:25 51°27.096 2°48.579 341.9 13.6 345 27.3
2011-07-08 06:17:30 51°27.114 2°48.57 340.2 13.5 344 27.4
2011-07-08 06:17:35 51°27.132 2°48.563 340.8 13.6 345 27.5
2011-07-08 06:17:39 51°27.147 2°48.557 341.2 13.7 346 27.6
2011-07-08 06:17:44 51°27.165 2°48.548 341 13.6 342 27.6
2011-07-08 06:17:50 51°27.187 2°48.54 340.6 13.6 347 27.9
2011-07-08 06:17:55 51°27.205 2°48.532 341.4 13.4 344 28.2
2011-07-08 06:17:59 51°27.219 2°48.525 340.3 13.5 344 28.1
2011-07-08 06:18:05 51°27.241 2°48.515 339.5 13.3 343 28.2
2011-07-08 06:18:10 51°27.259 2°48.507 339.4 13.4 346 28.3
2011-07-08 06:18:15 51°27.276 2°48.498 340.9 13.4 342 28.5
2011-07-08 06:18:19 51°27.291 2°48.492 339.8 13.6 347 28.8
2011-07-08 06:18:25 51°27.312 2°48.481 339.2 13.3 339 28.8
2011-07-08 06:18:30 51°27.33 2°48.474 338.5 13.6 348 28.9
2011-07-08 06:18:35 51°27.348 2°48.464 340.5 13.4 340 28.9
2011-07-08 06:18:39 51°27.362 2°48.459 339.8 13.5 348 29.1
2011-07-08 06:18:44 51°27.38 2°48.45 340.2 13.4 343 29
2011-07-08 06:18:50 51°27.402 2°48.441 339.6 13.3 346 28.9
2011-07-08 06:18:55 51°27.42 2°48.434 340 13.3 347 29.1
2011-07-08 06:18:59 51°27.434 2°48.428 342 13.3 345 29
2011-07-08 06:19:04 51°27.451 2°48.419 339.8 13.2 343 29.2
2011-07-08 06:19:10 51°27.473 2°48.411 340.6 13.3 347 29.1
2011-07-08 06:19:15 51°27.491 2°48.404 340.9 13.2 345 29.1
2011-07-08 06:19:19 51°27.505 2°48.398 340.8 13.4 346 29.4
2011-07-08 06:19:25 51°27.527 2°48.389 341.2 13.5 346 29.6
2011-07-08 06:19:29 51°27.541 2°48.383 341.5 13.4 347 29.2
2011-07-08 06:19:35 51°27.563 2°48.375 342.7 13.4 345 29.5
2011-07-08 06:19:39 51°27.578 2°48.369 341.6 13.5 347 30.1
2011-07-08 06:19:44 51°27.595 2°48.361 340.1 13.3 344 29.7
2011-07-08 06:19:50 51°27.617 2°48.353 341.8 13.4 346 29.5
2011-07-08 06:19:55 51°27.635 2°48.346 340.5 13.3 346 29.5
2011-07-08 06:19:59 51°27.649 2°48.34 340.6 13.4 345 29.5
2011-07-08 06:20:05 51°27.671 2°48.332 341 13.7 347 29.5
2011-07-08 06:20:10 51°27.689 2°48.323 341 13.5 342 29.9
2011-07-08 06:20:15 51°27.707 2°48.316 339.4 13.5 346 29.6
2011-07-08 06:20:19 51°27.722 2°48.31 340 13.6 345 29.8
2011-07-08 06:20:25 51°27.743 2°48.3 339 13.4 345 28.8
2011-07-08 06:20:30 51°27.762 2°48.292 339.9 13.5 346 29.2
2011-07-08 06:20:35 51°27.779 2°48.284 339.6 13.4 345 29
2011-07-08 06:20:39 51°27.794 2°48.279 340.2 13.6 348 28.7
2011-07-08 06:20:45 51°27.816 2°48.269 341.7 13.4 343 29.1
2011-07-08 06:20:50 51°27.834 2°48.262 339.8 13.5 346 28.8
2011-07-08 06:20:55 51°27.852 2°48.252 339.3 13.4 342 29.9
2011-07-08 06:20:59 51°27.866 2°48.246 338 13.5 346 29.8
2011-07-08 06:21:04 51°27.884 2°48.24 339.8 13.4 344 30.2
2011-07-08 06:21:10 51°27.906 2°48.23 339 13.5 345 30.5
2011-07-08 06:21:15 51°27.924 2°48.224 340.5 13.5 347 31.1
2011-07-08 06:21:19 51°27.938 2°48.217 340.7 13.5 345 31.4
2011-07-08 06:21:24 51°27.957 2°48.21 340.2 13.5 346 32.1
2011-07-08 06:21:30 51°27.978 2°48.201 340.6 13.5 346 31.8
2011-07-08 06:21:35 51°27.996 2°48.193 339.7 13.3 346 31.7
2011-07-08 06:21:39 51°28.011 2°48.188 340.6 13.3 346 32.2
2011-07-08 06:21:45 51°28.032 2°48.179 340.3 13.4 346 32.3
2011-07-08 06:21:49 51°28.047 2°48.174 341.1 13.5 348 32.7
2011-07-08 06:21:55 51°28.069 2°48.166 341.3 13.4 348 32.7
2011-07-08 06:21:59 51°28.083 2°48.16 342.4 13.5 345 33.1
2011-07-08 06:22:05 51°28.105 2°48.152 340.9 13.6 346 33.7
2011-07-08 06:22:10 51°28.124 2°48.144 340.2 13.7 346 34.1
2011-07-08 06:22:15 51°28.142 2°48.136 340.7 13.7 344 34.2
2011-07-08 06:22:19 51°28.156 2°48.127 337.8 13.5 341 34.6
2011-07-08 06:22:25 51°28.178 2°48.118 337.4 13.6 346 34.6
2011-07-08 06:22:30 51°28.195 2°48.108 338.3 13.4 339 34.3
2011-07-08 06:22:35 51°28.214 2°48.102 336.7 13.7 348 34
2011-07-08 06:22:39 51°28.228 2°48.093 337.7 13.4 341 33.6
2011-07-08 06:22:45 51°28.25 2°48.084 337.3 13.5 345 33.1
2011-07-08 06:22:50 51°28.267 2°48.075 337.2 13.3 343 33.4
2011-07-08 06:22:55 51°28.285 2°48.067 337.7 13.4 346 33.6
2011-07-08 06:22:59 51°28.3 2°48.061 338.4 13.4 345 33.1
2011-07-08 06:23:04 51°28.318 2°48.054 340.1 13.5 348 32.9
2011-07-08 06:23:10 51°28.339 2°48.045 340.7 13.5 345 32.8
2011-07-08 06:23:15 51°28.358 2°48.04 340.6 13.7 349 33.7
2011-07-08 06:23:19 51°28.373 2°48.034 340.9 13.5 346 34.2
2011-07-08 06:23:24 51°28.391 2°48.027 340.9 13.7 347 34.3
2011-07-08 06:23:30 51°28.413 2°48.018 340.8 13.6 346 34.1
2011-07-08 06:23:35 51°28.432 2°48.012 341.3 13.7 347 34.2
2011-07-08 06:23:39 51°28.446 2°48.005 340.3 13.3 345 33.6
2011-07-08 06:23:44 51°28.464 2°47.999 340.7 13.3 347 33.4
2011-07-08 06:23:50 51°28.486 2°47.99 340.9 13.4 347 32.9
2011-07-08 06:23:55 51°28.504 2°47.985 341.3 13.5 348 32.9
2011-07-08 06:23:59 51°28.518 2°47.978 341.8 13.4 345 31.8
2011-07-08 06:24:05 51°28.54 2°47.971 341.2 13.3 347 31.4
2011-07-08 06:24:10 51°28.558 2°47.964 340.6 13.3 348 31.8
2011-07-08 06:24:15 51°28.576 2°47.958 341.6 13.4 349 32.3
2011-07-08 06:24:19 51°28.591 2°47.954 343.4 13.4 350 32.1
2011-07-08 06:24:24 51°28.609 2°47.948 343 13.3 347 32.3
2011-07-08 06:24:30 51°28.631 2°47.941 342.3 13.5 350 32.2
2011-07-08 06:24:35 51°28.649 2°47.934 342.5 13.3 347 30.9
2011-07-08 06:24:40 51°28.667 2°47.93 343.2 13.5 350 30.7
2011-07-08 06:24:45 51°28.685 2°47.922 341.9 13.4 346 31.2
2011-07-08 06:24:50 51°28.704 2°47.918 342.7 13.7 350 31.8
2011-07-08 06:24:55 51°28.722 2°47.909 341.9 13.4 344 31.1
2011-07-08 06:24:59 51°28.737 2°47.904 340.8 13.5 349 31.1
2011-07-08 06:25:05 51°28.758 2°47.895 341.2 13.3 344 30.6
2011-07-08 06:25:10 51°28.777 2°47.89 340.8 13.5 350 30.3
2011-07-08 06:25:15 51°28.794 2°47.882 341.9 13.3 344 30.2
2011-07-08 06:25:19 51°28.809 2°47.877 340.6 13.4 348 29.9
2011-07-08 06:25:25 51°28.831 2°47.869 341.5 13.5 345 29.8
2011-07-08 06:25:30 51°28.849 2°47.862 341 13.5 347 29.8
2011-07-08 06:25:35 51°28.867 2°47.856 341.6 13.5 348 29.7
2011-07-08 06:25:39 51°28.881 2°47.85 341.2 13.3 347 29.6
2011-07-08 06:25:44 51°28.899 2°47.843 340.7 13.3 345 29.3
2011-07-08 06:25:50 51°28.922 2°47.836 341.1 13.6 350 28.5
2011-07-08 06:25:55 51°28.94 2°47.828 341.3 13.5 345 29.3
2011-07-08 06:25:59 51°28.954 2°47.821 340.9 13.4 344 29.1
2011-07-08 06:26:04 51°28.972 2°47.813 338.2 13.4 344 28.9
2011-07-08 06:26:10 51°28.993 2°47.803 338.1 13.4 343 28.6
2011-07-08 06:26:15 51°29.012 2°47.796 339 13.5 346 27.2
2011-07-08 06:26:19 51°29.025 2°47.787 338 13.3 341 28.9
2011-07-08 06:26:25 51°29.047 2°47.778 338.2 13.4 344 29.4
2011-07-08 06:26:30 51°29.064 2°47.77 337.5 13.4 345 29.5
2011-07-08 06:26:35 51°29.082 2°47.761 339.5 13.4 342 29.2
2011-07-08 06:26:39 51°29.097 2°47.755 338.6 13.5 345 28.6
2011-07-08 06:26:44 51°29.114 2°47.745 337.4 13.2 340 27.9
2011-07-08 06:26:50 51°29.136 2°47.736 337.7 13.5 346 27.7
2011-07-08 06:26:55 51°29.154 2°47.727 338.6 13.4 342 28
2011-07-08 06:27:00 51°29.172 2°47.719 338.5 13.5 345 27.3
2011-07-08 06:27:05 51°29.19 2°47.71 339.3 13.4 341 27.2
2011-07-08 06:27:10 51°29.207 2°47.701 337.3 13.4 344 27.4
2011-07-08 06:27:15 51°29.225 2°47.693 338.6 13.4 344 27.6
2011-07-08 06:27:19 51°29.239 2°47.685 337.1 13.3 344 26.7
2011-07-08 06:27:25 51°29.261 2°47.678 340.6 13.3 347 25.1
2011-07-08 06:27:30 51°29.278 2°47.669 340.7 13.3 342 24.3
2011-07-08 06:27:35 51°29.297 2°47.663 338.9 13.4 347 26.5
2011-07-08 06:27:39 51°29.311 2°47.655 339.5 13.3 342 28
2011-07-08 06:27:44 51°29.328 2°47.647 339.4 13.3 345 28.6
2011-07-08 06:27:50 51°29.35 2°47.638 339.9 13.4 345 28
2011-07-08 06:27:55 51°29.367 2°47.629 339 13.2 343 27.3
2011-07-08 06:27:59 51°29.382 2°47.624 339.8 13.3 349 26.2
2011-07-08 06:28:04 51°29.4 2°47.617 341.9 13.2 344 23
2011-07-08 06:28:10 51°29.421 2°47.608 340.6 13.3 346 24.7
2011-07-08 06:28:15 51°29.439 2°47.601 341.9 13.3 346 26.2
2011-07-08 06:28:19 51°29.453 2°47.597 342.4 13.4 348 27.4
2011-07-08 06:28:24 51°29.471 2°47.589 341.9 13.4 344 26.5
2011-07-08 06:28:30 51°29.493 2°47.581 340.9 13.6 347 25.8
2011-07-08 06:28:35 51°29.511 2°47.572 341.5 13.6 344 24.7
2011-07-08 06:28:39 51°29.526 2°47.566 341 13.7 346 26.7
2011-07-08 06:28:45 51°29.548 2°47.556 339.7 13.5 343 27.2
2011-07-08 06:28:50 51°29.566 2°47.548 339.1 13.6 345 25.3
2011-07-08 06:28:55 51°29.584 2°47.54 339.9 13.5 344 25.4
2011-07-08 06:28:59 51°29.599 2°47.534 340.6 13.6 346 26.7
2011-07-08 06:29:05 51°29.62 2°47.524 340.3 13.4 342 27.1
2011-07-08 06:29:10 51°29.638 2°47.518 339.9 13.6 350 26.5
2011-07-08 06:29:15 51°29.656 2°47.509 342.4 13.3 341 24.7
2011-07-08 06:29:19 51°29.671 2°47.505 340.4 13.7 350 23.8
2011-07-08 06:29:25 51°29.692 2°47.494 339.8 13.4 342 26.6
2011-07-08 06:29:30 51°29.711 2°47.488 340.7 13.5 348 26.9
2011-07-08 06:29:35 51°29.728 2°47.479 340.6 13.3 341 27.7
2011-07-08 06:29:39 51°29.743 2°47.474 339.8 13.5 348 27.3